Latest Coastal Weather Observations for Albany Airport

IDW60701

Issued at 11:42 am WST Monday 25 May 2015 (issued every 10 minutes, with the page automatically refreshed every 10 minutes)

About coastal observations | Map of coastal stations | Coastal observations for WA | Marine services | Other Formats
Station Details ID: 009999 Name: ALBANY AIRPORT Lat: -34.94 Lon: 117.82 Height: 68.4 m
Data from the previous 72 hours. | See also: Recent months at Albany Airport
Date/Time
WST
Temp

°C
Wind Pressure Rain
since 9am
mm
Weather Cloud Vis
km
Sea
Height
m
Swell
Dir
 
Speed
knots
Gust
knots
hPa Trend Height
m
Period
s
Dir
25/11:00am 17.8 NW 12 16 1020.9 - 0.0 - Mostly clear 10 - - - -
25/10:30am 17.4 NW 9 12 1021.3 - 0.0 - Mostly clear 10 - - - -
25/10:00am 16.3 NNW 8 11 1021.4 - 0.0 - Mostly clear 10 - - - -
25/09:30am 14.6 NNW 9 13 1021.6 - 0.0 - Mostly clear 10 - - - -
25/09:00am 12.8 NNW 9 11 1021.8 R 0.0 Fine Partly cloudy 30 - - - -
25/08:00am 11.6 N 7 9 1021.6 - 0.0 - Mostly clear 10 - - - -
25/07:30am 9.6 NW 4 6 1021.5 - 0.0 - Mostly clear 10 - - - -
25/07:00am 8.8 NW 5 6 1021.3 - 0.0 - Mostly clear 10 - - - -
25/06:30am 9.0 NW 4 6 1021.1 - 0.0 - Mostly clear 10 - - - -
25/06:00am 10.2 NNW 7 9 1020.9 F 0.0 Fine Mostly clear 30 - - - -
25/05:30am 10.8 NNW 5 6 1020.8 - 0.0 - Partly cloudy 10 - - - -
25/05:00am 11.9 N 11 12 1020.8 - 0.0 - Cloudy 10 - - - -
25/04:30am 10.2 NW 6 7 1021.1 - 0.0 - Cloudy 10 - - - -
25/04:00am 9.4 NW 5 7 1021.2 - 0.0 - Cloudy 10 - - - -
25/03:30am 9.2 W 5 8 1021.5 - 0.0 - Partly cloudy 10 - - - -
25/03:00am 8.5 WNW 5 7 1021.5 - 0.0 - Mostly cloudy 10 - - - -
25/02:30am 9.3 W 8 10 1021.7 - 0.0 - - 10 - - - -
25/02:00am 7.5 N 4 5 1021.3 - 0.0 - Partly cloudy 10 - - - -
25/01:30am 7.5 N 6 7 1021.2 - 0.0 - Partly cloudy 10 - - - -
25/01:00am 9.4 NW 4 5 1021.4 - 0.0 - Partly cloudy 10 - - - -
25/12:30am 10.1 N 5 7 1021.7 - 0.0 - Cloudy 10 - - - -
25/12:00am 9.3 WNW 3 4 1021.8 - 0.0 - Partly cloudy 10 - - - -
 
Date/Time
WST
Temp

°C
Wind Pressure Rain
since 9am
mm
Weather Cloud Vis
km
Sea
Height
m
Swell
Dir
 
Speed
knots
Gust
knots
hPa Trend Height
m
Period
s
Dir
24/11:30pm 9.9 N 3 4 1021.7 - 0.0 - - 10 - - - -
24/11:00pm 10.0 NW 5 6 1021.7 - 0.0 - - 10 - - - -
24/10:30pm 10.4 W 5 6 1021.9 - 0.0 - - 10 - - - -
24/10:00pm 9.1 NNE 3 5 1021.8 - 0.0 - - 10 - - - -
24/09:30pm 10.9 NW 4 6 1021.7 - 0.0 - - 10 - - - -
24/09:00pm 11.7 NNW 6 7 1021.8 - 0.0 - - 10 - - - -
24/08:30pm 12.0 N 7 7 1021.6 - 0.0 - Cloudy 10 - - - -
24/08:00pm 12.0 N 5 5 1021.7 - 0.0 - Cloudy 10 - - - -
24/07:30pm 12.8 N 5 5 1021.8 - 0.0 - Cloudy 10 - - - -
24/07:00pm 12.8 N 4 5 1021.7 - 0.0 - Cloudy 10 - - - -
24/06:30pm 13.3 N 3 4 1021.5 - 0.0 - Cloudy 10 - - - -
24/06:00pm 13.6 N 3 4 1021.6 - 0.0 - Cloudy 10 - - - -
24/05:30pm 13.8 NNW 4 4 1021.2 - 0.0 - Cloudy 10 - - - -
24/05:00pm 13.8 NW 4 5 1021.0 - 0.0 - Mostly clear 10 - - - -
24/04:30pm 14.3 NNW 5 5 1020.9 - 0.0 - Mostly clear 10 - - - -
24/04:00pm 17.5 N 5 6 1020.7 - 0.0 - Mostly clear 10 - - - -
24/03:30pm 17.9 NNW 6 8 1020.6 - 0.0 - Mostly clear 10 - - - -
24/03:00pm 18.2 NNW 6 8 1020.7 R 0.0 Fine Partly cloudy 30 - - - -
24/02:30pm 18.6 WNW 7 10 1020.6 - 0.0 - Mostly clear 10 - - - -
24/02:00pm 18.8 NW 8 12 1020.5 - 0.0 - Mostly clear 10 - - - -
24/01:30pm 18.8 N 5 13 1020.7 - 0.0 - Mostly clear 10 - - - -
24/01:00pm 18.3 N 4 6 1020.9 - 0.0 - Mostly clear 10 - - - -
24/12:30pm 17.2 NNW 5 7 1021.2 - 0.0 - Mostly clear 10 - - - -
24/12:00pm 16.6 NW 5 6 1021.7 R 0.0 Fine Mostly cloudy 30 - - - -
24/11:30am 16.1 W 7 8 1022.0 - 0.0 - Mostly clear 10 - - - -
24/11:00am 16.9 NW 7 9 1022.3 - 0.0 - Mostly clear 10 - - - -
24/10:30am 16.3 NW 8 11 1022.4 - 0.0 - Mostly clear 10 - - - -
24/10:00am 14.5 NW 7 9 1022.4 - 0.0 - Mostly clear 10 - - - -
24/09:30am 14.2 NW 7 9 1022.4 - 0.0 - Mostly clear 10 - - - -
24/09:00am 13.6 NW 6 7 1022.3 R 1.0 Fine Mostly cloudy 30 - - - -
24/08:30am 13.4 NW 7 8 1022.1 - 1.0 - Mostly clear 10 - - - -
24/08:00am 10.3 NW 6 7 1021.9 - 1.0 - Mostly clear 10 - - - -
24/07:30am 10.5 NW 6 6 1021.6 - 1.0 - Mostly clear 10 - - - -
24/07:00am 10.2 NW 6 7 1021.4 - 1.0 - Mostly clear 10 - - - -
24/06:30am 9.9 NW 6 7 1021.3 - 1.0 - Mostly clear 10 - - - -
24/06:00am 10.4 NW 6 6 1021.1 F 1.0 Fine Mostly cloudy 25 - - - -
24/05:30am 10.4 NNW 5 5 1020.9 - 1.0 - Partly cloudy 10 - - - -
24/05:00am 10.0 WNW 7 7 1020.8 - 1.0 - Cloudy 10 - - - -
24/04:30am 8.9 NW 1 6 1020.6 - 1.0 - Partly cloudy 10 - - - -
24/04:00am 8.5 NW 7 8 1020.4 - 1.0 - Partly cloudy 10 - - - -
24/03:30am 9.5 NW 7 9 1020.3 - 1.0 - Cloudy 10 - - - -
24/03:00am 8.6 NNW 1 5 1020.4 - 1.0 - Mostly cloudy 10 - - - -
24/02:30am 8.3 NNW 3 4 1020.3 - 1.0 - Partly cloudy 10 - - - -
24/02:00am 9.7 NW 5 6 1020.0 - 1.0 - Cloudy 10 - - - -
24/01:30am 8.8 WNW 6 7 1020.0 - 1.0 - Partly cloudy 10 - - - -
24/01:00am 8.9 WNW 5 6 1020.0 - 1.0 - Partly cloudy 10 - - - -
24/12:30am 9.1 WNW 6 7 1020.0 - 1.0 - - 10 - - - -
24/12:00am 9.3 WNW 6 6 1020.0 - 1.0 - Mostly clear 10 - - - -
 
Date/Time
WST
Temp

°C
Wind Pressure Rain
since 9am
mm
Weather Cloud Vis
km
Sea
Height
m
Swell
Dir
 
Speed
knots
Gust
knots
hPa Trend Height
m
Period
s
Dir
23/11:30pm 9.6 WNW 5 6 1019.9 - 1.0 - Partly cloudy 10 - - - -
23/11:00pm 9.5 WNW 6 7 1020.0 - 0.8 - Partly cloudy 10 - - - -
23/10:30pm 9.7 WNW 6 7 1020.0 - 0.8 - Partly cloudy 10 - - - -
23/10:00pm 10.8 W 5 6 1020.0 - 0.8 - Partly cloudy 10 - - - -
23/09:30pm 11.1 WNW 6 6 1020.0 - 0.8 - Partly cloudy 10 - - - -
23/09:00pm 12.1 WNW 7 10 1020.2 - 0.8 - Cloudy 10 - - - -
23/08:30pm 11.7 WNW 6 8 1020.0 - 0.8 - Partly cloudy 10 - - - -
23/08:00pm 11.6 NW 5 7 1019.7 - 0.8 - Partly cloudy 10 - - - -
23/07:30pm 12.0 NW 6 7 1019.3 - 0.8 - Partly cloudy 10 - - - -
23/07:00pm 10.7 CALM 0 0 1019.0 - 0.8 - Partly cloudy 10 - - - -
23/06:30pm 11.1 WNW 5 6 1018.7 - 0.8 - - 10 - - - -
23/06:00pm 12.8 W 6 6 1018.5 - 0.8 - - 10 - - - -
23/05:30pm 13.7 W 6 7 1018.0 - 0.8 - - 10 - - - -
23/05:00pm 15.1 W 6 8 1017.6 - 0.8 - Mostly clear 10 - - - -
23/04:30pm 16.2 WSW 8 11 1017.4 - 0.8 - Mostly clear 10 - - - -
23/04:00pm 16.7 W 7 10 1017.1 - 0.8 - Mostly clear 10 - - - -
23/03:30pm 17.4 W 8 12 1016.8 - 0.8 - Mostly clear 10 - - - -
23/03:00pm 16.2 W 8 10 1016.9 R 0.8 Fine Mostly cloudy 25 - - - -
23/02:30pm 16.3 W 9 14 1016.7 - 0.8 - Mostly clear 10 - - - -
23/02:00pm 16.1 W 7 9 1016.5 - 0.8 - Mostly clear 10 - - - -
23/01:30pm 15.8 WSW 12 17 1016.5 - 0.8 - Partly cloudy 10 - - - -
23/01:18pm 17.9 W 12 17 1016.3 - 0.0 Showers Partly cloudy 5 - - - -
23/01:00pm 17.4 W 15 21 1016.2 - 0.0 - Mostly clear 10 - - - -
23/12:30pm 18.8 W 12 16 1015.9 - 0.0 - Partly cloudy 10 - - - -
23/12:00pm 20.3 WNW 15 20 1016.2 R 0.0 Fine Mostly clear 30 - - - -
23/11:30am 19.4 W 11 18 1016.4 - 0.0 - - 10 - - - -
23/11:00am 18.6 NW 11 15 1016.6 - 0.0 - - 10 - - - -
23/10:30am 17.7 NW 11 14 1016.7 - 0.0 - - 10 - - - -
23/10:00am 16.7 NW 11 15 1016.8 - 0.0 - - 10 - - - -
23/09:30am 15.3 NW 9 11 1017.0 - 0.0 - - 10 - - - -
23/09:00am 13.2 NW 7 8 1017.0 F 0.0 Fine Mostly clear 30 - - - -
23/08:30am 11.2 NNW 4 7 1016.9 - 0.0 - - 10 - - - -
23/08:00am 8.5 N 2 3 1016.9 - 0.0 - - 10 - - - -
23/07:30am 6.2 NNW 4 5 1016.8 - 0.0 - - 10 - - - -
23/07:00am 5.7 WNW 4 5 1016.8 - 0.0 Shallow fog Mostly clear 10 - - - -
23/06:30am 5.6 NW 1 4 1016.7 - 0.0 - - 10 - - - -
23/06:00am 6.0 N 3 4 1016.5 F 0.0 Shallow fog Mostly clear 30 - - - -
23/05:30am 5.9 N 4 5 1016.1 - 0.0 - - 10 - - - -
23/05:00am 6.9 N 5 6 1016.1 - 0.0 - - 10 - - - -
23/04:30am 6.4 N 3 5 1016.2 - 0.0 - - 10 - - - -
23/04:00am 6.4 N 4 5 1016.1 - 0.0 - - 10 - - - -
23/03:30am 5.4 N 2 3 1016.2 - 0.0 - - 10 - - - -
23/03:27am 5.6 N 3 3 1016.2 - 0.0 - - 10 - - - -
23/03:00am 5.3 N 4 4 1016.6 - 0.0 - - 0.7 - - - -
23/02:38am 6.0 N 3 4 1016.6 - 0.0 - - 5 - - - -
23/02:30am 6.3 N 3 4 1016.6 - 0.0 - - 10 - - - -
23/02:00am 6.1 WNW 3 4 1016.8 - 0.0 - - 10 - - - -
23/01:30am 6.6 WNW 1 3 1017.0 - 0.0 - - 10 - - - -
23/01:00am 7.5 NNW 1 3 1017.2 - 0.0 - - 10 - - - -
23/12:30am 6.9 N 4 5 1017.5 - 0.0 - - 10 - - - -
23/12:00am 7.1 N 4 5 1017.8 - 0.0 - - 10 - - - -
 
Date/Time
WST
Temp

°C
Wind Pressure Rain
since 9am
mm
Weather Cloud Vis
km
Sea
Height
m
Swell
Dir
 
Speed
knots
Gust
knots
hPa Trend Height
m
Period
s
Dir
22/11:30pm 7.8 N 5 5 1018.1 - 0.0 - - 10 - - - -
22/11:00pm 7.5 NNE 4 4 1018.5 - 0.0 - - 10 - - - -
22/10:30pm 7.1 NNE 5 6 1018.6 - 0.0 - - 10 - - - -
22/10:00pm 7.8 NNE 5 5 1018.9 - 0.0 - - 10 - - - -
22/09:30pm 8.0 N 4 4 1019.2 - 0.0 - - 10 - - - -
22/09:00pm 7.8 NNE 6 6 1019.2 - 0.0 - - 10 - - - -
22/08:30pm 8.6 NNE 6 6 1018.9 - 0.0 - - 10 - - - -
22/08:00pm 10.1 NE 4 5 1019.0 - 0.0 - - 10 - - - -
22/07:30pm 10.2 NE 5 6 1019.0 - 0.0 - - 10 - - - -
22/07:00pm 10.7 NE 5 6 1019.1 - 0.0 - - 10 - - - -
22/06:30pm 10.8 NE 5 6 1019.0 - 0.0 - - 10 - - - -
22/06:00pm 10.8 ENE 6 6 1019.0 - 0.0 - - 10 - - - -
22/05:30pm 12.5 NE 5 6 1018.8 - 0.0 - - 10 - - - -
22/05:00pm 13.4 NE 5 7 1018.8 - 0.0 - - 10 - - - -
22/04:30pm 15.5 NE 6 8 1018.8 - 0.0 - - 10 - - - -
22/04:00pm 16.9 NE 6 8 1018.7 - 0.0 - - 10 - - - -
22/03:30pm 15.9 NE 7 10 1018.8 - 0.0 - - 10 - - - -
22/03:00pm 18.1 ENE 7 10 1018.9 F 0.0 Fine Partly cloudy 30 - - - -
22/02:30pm 18.5 NNE 7 9 1018.9 - 0.0 - - 10 - - - -
22/02:00pm 18.1 ENE 7 10 1019.1 - 0.0 - - 10 - - - -
22/01:30pm 17.9 NNE 6 8 1019.4 - 0.0 - Partly cloudy 10 - - - -
22/01:00pm 17.3 NNE 4 6 1019.8 - 0.0 - Partly cloudy 10 - - - -
22/12:30pm 16.8 NNE 4 6 1020.3 - 0.0 - Partly cloudy 10 - - - -
22/12:00pm 15.5 W 2 4 1021.0 F 0.0 Fine Partly cloudy 30 - - - -

Other Formats:

Comma delimited format used in spreadsheet applications
http://www.bom.gov.au/fwo/IDW60701/IDW60701.94802.axf

JavaScript Object Notation format (JSON) in row-major order
http://www.bom.gov.au/fwo/IDW60701/IDW60701.94802.json